sensor_id;sensor_type;location;lat;lon;timestamp;pressure;altitude;pressure_sealevel;temperature;humidity
21109;BME280;10712;52.944;9.098;2022-10-31T00:00:28;101791.72;;;20.91;59.50
21109;BME280;10712;52.944;9.098;2022-10-31T00:02:54;101790.88;;;20.91;59.49
21109;BME280;10712;52.944;9.098;2022-10-31T00:05:21;101793.44;;;20.92;59.25
21109;BME280;10712;52.944;9.098;2022-10-31T00:07:46;101793.44;;;20.92;59.60
21109;BME280;10712;52.944;9.098;2022-10-31T00:10:12;101811.56;;;20.92;59.17
21109;BME280;10712;52.944;9.098;2022-10-31T00:12:38;101814.13;;;20.93;59.46
21109;BME280;10712;52.944;9.098;2022-10-31T00:15:04;101816.84;;;20.93;59.31
21109;BME280;10712;52.944;9.098;2022-10-31T00:17:30;101821.28;;;20.94;59.10
21109;BME280;10712;52.944;9.098;2022-10-31T00:19:56;101823.25;;;20.92;59.30
21109;BME280;10712;52.944;9.098;2022-10-31T00:22:22;101820.66;;;20.91;59.39
21109;BME280;10712;52.944;9.098;2022-10-31T00:24:48;101825.22;;;20.90;59.39
21109;BME280;10712;52.944;9.098;2022-10-31T00:27:13;101837.25;;;20.97;59.47
21109;BME280;10712;52.944;9.098;2022-10-31T00:29:39;101845.16;;;21.00;59.82
21109;BME280;10712;52.944;9.098;2022-10-31T00:32:05;101842.66;;;21.08;59.72
21109;BME280;10712;52.944;9.098;2022-10-31T00:34:31;101853.50;;;21.08;60.10
21109;BME280;10712;52.944;9.098;2022-10-31T00:36:59;101851.47;;;21.10;59.94
21109;BME280;10712;52.944;9.098;2022-10-31T00:39:24;101845.09;;;21.11;60.14
21109;BME280;10712;52.944;9.098;2022-10-31T00:41:50;101856.66;;;21.13;60.00
21109;BME280;10712;52.944;9.098;2022-10-31T00:44:16;101858.63;;;21.23;60.15
21109;BME280;10712;52.944;9.098;2022-10-31T00:46:42;101856.50;;;21.26;59.99
21109;BME280;10712;52.944;9.098;2022-10-31T00:49:07;101863.88;;;21.24;60.08
21109;BME280;10712;52.944;9.098;2022-10-31T00:51:33;101866.75;;;21.23;60.21
21109;BME280;10712;52.944;9.098;2022-10-31T00:53:59;101873.75;;;21.25;59.88
21109;BME280;10712;52.944;9.098;2022-10-31T00:56:25;101866.75;;;21.23;60.00
21109;BME280;10712;52.944;9.098;2022-10-31T00:58:51;101872.19;;;21.23;59.77
21109;BME280;10712;52.944;9.098;2022-10-31T01:01:17;101866.75;;;21.23;59.85
21109;BME280;10712;52.944;9.098;2022-10-31T01:03:43;101875.88;;;21.21;59.61
21109;BME280;10712;52.944;9.098;2022-10-31T01:06:13;101877.84;;;21.19;59.67
21109;BME280;10712;52.944;9.098;2022-10-31T01:08:39;101877.09;;;21.17;59.85
21109;BME280;10712;52.944;9.098;2022-10-31T01:11:15;101879.81;;;21.17;59.90
21109;BME280;10712;52.944;9.098;2022-10-31T01:13:41;101884.50;;;21.15;59.91
21109;BME280;10712;52.944;9.098;2022-10-31T01:16:10;101883.63;;;21.15;59.66
21109;BME280;10712;52.944;9.098;2022-10-31T01:18:36;101882.03;;;21.12;59.92
21109;BME280;10712;52.944;9.098;2022-10-31T01:21:17;101882.03;;;21.12;59.42
21109;BME280;10712;52.944;9.098;2022-10-31T01:23:43;101896.97;;;21.07;59.43
21109;BME280;10712;52.944;9.098;2022-10-31T01:26:19;101891.66;;;21.05;59.82
21109;BME280;10712;52.944;9.098;2022-10-31T01:28:59;101890.22;;;21.01;59.36
21109;BME280;10712;52.944;9.098;2022-10-31T01:31:31;101891.31;;;20.99;59.94
21109;BME280;10712;52.944;9.098;2022-10-31T01:33:59;101895.88;;;20.98;59.56
21109;BME280;10712;52.944;9.098;2022-10-31T01:36:29;101904.25;;;20.95;59.59
21109;BME280;10712;52.944;9.098;2022-10-31T01:38:59;101898.84;;;20.95;59.58
21109;BME280;10712;52.944;9.098;2022-10-31T01:41:30;101895.28;;;20.95;59.54
21109;BME280;10712;52.944;9.098;2022-10-31T01:44:01;101896.13;;;20.95;59.07
21109;BME280;10712;52.944;9.098;2022-10-31T01:46:37;101901.53;;;20.95;59.16
21109;BME280;10712;52.944;9.098;2022-10-31T01:49:11;101904.41;;;20.94;59.38
21109;BME280;10712;52.944;9.098;2022-10-31T01:51:46;101904.41;;;20.94;59.55
21109;BME280;10712;52.944;9.098;2022-10-31T01:54:18;101901.81;;;20.92;59.13
21109;BME280;10712;52.944;9.098;2022-10-31T01:56:50;101900.09;;;20.91;59.18
21109;BME280;10712;52.944;9.098;2022-10-31T01:59:21;101901.94;;;20.91;59.40
21109;BME280;10712;52.944;9.098;2022-10-31T02:01:50;101902.06;;;20.89;59.20
21109;BME280;10712;52.944;9.098;2022-10-31T02:04:18;101896.91;;;20.86;59.43
21109;BME280;10712;52.944;9.098;2022-10-31T02:06:55;101897.91;;;20.85;59.32
21109;BME280;10712;52.944;9.098;2022-10-31T02:09:23;101895.19;;;20.85;59.05
21109;BME280;10712;52.944;9.098;2022-10-31T02:11:54;101913.16;;;20.86;58.83
21109;BME280;10712;52.944;9.098;2022-10-31T02:14:25;101908.25;;;20.80;59.24
21109;BME280;10712;52.944;9.098;2022-10-31T02:16:53;101912.19;;;20.76;58.85
21109;BME280;10712;52.944;9.098;2022-10-31T02:25:40;101909.53;;;20.65;59.15
21109;BME280;10712;52.944;9.098;2022-10-31T02:29:04;101906.47;;;20.58;59.12
21109;BME280;10712;52.944;9.098;2022-10-31T02:41:06;101914.66;;;20.68;59.21
21109;BME280;10712;52.944;9.098;2022-10-31T02:46:38;101917.53;;;20.66;59.24
21109;BME280;10712;52.944;9.098;2022-10-31T02:51:52;101927.50;;;20.66;59.25
21109;BME280;10712;52.944;9.098;2022-10-31T02:54:24;101927.50;;;20.66;59.51
21109;BME280;10712;52.944;9.098;2022-10-31T02:57:02;101926.00;;;20.62;59.21
21109;BME280;10712;52.944;9.098;2022-10-31T02:59:33;101920.59;;;20.62;59.32
21109;BME280;10712;52.944;9.098;2022-10-31T03:05:32;101916.44;;;20.58;59.35
21109;BME280;10712;52.944;9.098;2022-10-31T03:11:01;101930.34;;;20.53;59.15
21109;BME280;10712;52.944;9.098;2022-10-31T03:14:16;101930.69;;;20.49;59.34
21109;BME280;10712;52.944;9.098;2022-10-31T03:16:51;101937.59;;;20.53;59.44
21109;BME280;10712;52.944;9.098;2022-10-31T03:19:27;101939.56;;;20.51;59.38
21109;BME280;10712;52.944;9.098;2022-10-31T03:24:28;101945.97;;;20.50;59.07
21109;BME280;10712;52.944;9.098;2022-10-31T03:27:00;101941.41;;;20.50;59.11
21109;BME280;10712;52.944;9.098;2022-10-31T03:29:36;101946.59;;;20.53;59.06
21109;BME280;10712;52.944;9.098;2022-10-31T03:32:19;101940.44;;;20.51;59.13
21109;BME280;10712;52.944;9.098;2022-10-31T03:34:50;101936.97;;;20.49;59.26
21109;BME280;10712;52.944;9.098;2022-10-31T03:37:22;101952.38;;;20.49;59.35
21109;BME280;10712;52.944;9.098;2022-10-31T03:39:50;101945.22;;;20.48;59.23
21109;BME280;10712;52.944;9.098;2022-10-31T03:42:25;101946.94;;;20.49;59.37
21109;BME280;10712;52.944;9.098;2022-10-31T03:45:06;101946.22;;;20.47;59.41
21109;BME280;10712;52.944;9.098;2022-10-31T03:47:37;101944.50;;;20.46;59.24
21109;BME280;10712;52.944;9.098;2022-10-31T03:50:06;101941.78;;;20.46;59.43
21109;BME280;10712;52.944;9.098;2022-10-31T03:55:28;101956.06;;;20.36;59.29
21109;BME280;10712;52.944;9.098;2022-10-31T03:58:10;101969.00;;;20.33;59.32
21109;BME280;10712;52.944;9.098;2022-10-31T04:00:42;101960.69;;;20.23;59.35
21109;BME280;10712;52.944;9.098;2022-10-31T04:03:19;101970.78;;;20.21;59.27
21109;BME280;10712;52.944;9.098;2022-10-31T04:05:53;101973.75;;;20.18;59.14
21109;BME280;10712;52.944;9.098;2022-10-31T04:08:26;101974.84;;;20.16;59.26
21109;BME280;10712;52.944;9.098;2022-10-31T04:10:57;101976.94;;;20.12;59.39
21109;BME280;10712;52.944;9.098;2022-10-31T04:13:31;101982.59;;;20.09;59.21
21109;BME280;10712;52.944;9.098;2022-10-31T04:16:08;101985.41;;;20.08;59.27
21109;BME280;10712;52.944;9.098;2022-10-31T04:18:34;101986.66;;;20.15;59.06
21109;BME280;10712;52.944;9.098;2022-10-31T04:21:06;101996.13;;;20.20;59.14
21109;BME280;10712;52.944;9.098;2022-10-31T04:23:34;101981.38;;;20.24;59.27
21109;BME280;10712;52.944;9.098;2022-10-31T04:26:11;101992.19;;;20.24;59.26
21109;BME280;10712;52.944;9.098;2022-10-31T04:28:37;101999.09;;;20.28;59.38
21109;BME280;10712;52.944;9.098;2022-10-31T04:31:05;101999.09;;;20.28;59.41
21109;BME280;10712;52.944;9.098;2022-10-31T04:33:35;101977.44;;;20.28;59.50
21109;BME280;10712;52.944;9.098;2022-10-31T04:36:01;101988.88;;;20.32;59.59
21109;BME280;10712;52.944;9.098;2022-10-31T04:38:27;101988.03;;;20.31;59.57
21109;BME280;10712;52.944;9.098;2022-10-31T04:40:53;101983.59;;;20.30;59.73
21109;BME280;10712;52.944;9.098;2022-10-31T04:43:42;101988.50;;;20.25;59.83
21109;BME280;10712;52.944;9.098;2022-10-31T04:46:08;101982.09;;;20.26;59.72
21109;BME280;10712;52.944;9.098;2022-10-31T04:48:34;101973.84;;;20.28;59.91
21109;BME280;10712;52.944;9.098;2022-10-31T04:51:02;101981.97;;;20.28;60.01
21109;BME280;10712;52.944;9.098;2022-10-31T04:53:29;101978.19;;;20.30;59.95
21109;BME280;10712;52.944;9.098;2022-10-31T04:56:17;101972.66;;;20.32;59.95
21109;BME280;10712;52.944;9.098;2022-10-31T04:58:46;101975.47;;;20.30;59.95
21109;BME280;10712;52.944;9.098;2022-10-31T05:01:12;101977.44;;;20.28;59.81
21109;BME280;10712;52.944;9.098;2022-10-31T05:03:39;101980.03;;;20.30;59.86
21109;BME280;10712;52.944;9.098;2022-10-31T05:06:06;101983.38;;;20.33;59.80
21109;BME280;10712;52.944;9.098;2022-10-31T05:08:32;101977.44;;;20.28;59.93
21109;BME280;10712;52.944;9.098;2022-10-31T05:11:03;101979.38;;;20.26;59.88
21109;BME280;10712;52.944;9.098;2022-10-31T05:13:29;101976.69;;;20.26;59.92
21109;BME280;10712;52.944;9.098;2022-10-31T05:16:28;101968.56;;;20.26;59.92
21109;BME280;10712;52.944;9.098;2022-10-31T05:19:13;101967.97;;;20.23;59.89
21109;BME280;10712;52.944;9.098;2022-10-31T05:22:07;101963.91;;;20.17;60.01
21109;BME280;10712;52.944;9.098;2022-10-31T05:24:34;101960.72;;;20.12;59.98
21109;BME280;10712;52.944;9.098;2022-10-31T05:27:01;101964.88;;;20.05;59.89
21109;BME280;10712;52.944;9.098;2022-10-31T05:29:27;101956.50;;;19.97;59.79
21109;BME280;10712;52.944;9.098;2022-10-31T05:31:53;101969.28;;;19.95;59.79
21109;BME280;10712;52.944;9.098;2022-10-31T05:34:38;101969.50;;;19.92;59.64
21109;BME280;10712;52.944;9.098;2022-10-31T05:37:18;101976.13;;;19.88;59.72
21109;BME280;10712;52.944;9.098;2022-10-31T05:39:44;101978.34;;;19.83;59.58
21109;BME280;10712;52.944;9.098;2022-10-31T05:42:14;101974.13;;;19.79;59.60
21109;BME280;10712;52.944;9.098;2022-10-31T05:44:41;101988.88;;;19.75;59.35
21109;BME280;10712;52.944;9.098;2022-10-31T05:47:22;101982.22;;;19.67;59.46
21109;BME280;10712;52.944;9.098;2022-10-31T05:50:14;101987.13;;;19.62;59.13
21109;BME280;10712;52.944;9.098;2022-10-31T05:52:54;101988.34;;;19.58;59.21
21109;BME280;10712;52.944;9.098;2022-10-31T05:55:30;101994.47;;;19.49;58.83
21109;BME280;10712;52.944;9.098;2022-10-31T05:58:03;101992.63;;;19.37;58.73
21109;BME280;10712;52.944;9.098;2022-10-31T06:00:29;101994.06;;;19.30;58.69
21109;BME280;10712;52.944;9.098;2022-10-31T06:03:06;101987.41;;;19.23;58.53
21109;BME280;10712;52.944;9.098;2022-10-31T06:05:41;101991.09;;;19.22;58.38
21109;BME280;10712;52.944;9.098;2022-10-31T06:08:07;101985.91;;;19.19;58.49
21109;BME280;10712;52.944;9.098;2022-10-31T06:10:33;101979.75;;;19.17;58.36
21109;BME280;10712;52.944;9.098;2022-10-31T06:12:59;101985.16;;;19.17;58.17
21109;BME280;10712;52.944;9.098;2022-10-31T06:15:41;101993.72;;;19.11;58.01
21109;BME280;10712;52.944;9.098;2022-10-31T06:18:08;101997.84;;;19.04;57.99
21109;BME280;10712;52.944;9.098;2022-10-31T06:20:43;101991.19;;;18.97;57.96
21109;BME280;10712;52.944;9.098;2022-10-31T06:23:09;101996.59;;;18.97;58.09
21109;BME280;10712;52.944;9.098;2022-10-31T06:25:37;102002.22;;;18.94;57.88
21109;BME280;10712;52.944;9.098;2022-10-31T06:28:04;102002.44;;;18.91;57.76
21109;BME280;10712;52.944;9.098;2022-10-31T06:30:51;102006.34;;;18.86;58.06
21109;BME280;10712;52.944;9.098;2022-10-31T06:33:18;102003.66;;;18.86;57.86
21109;BME280;10712;52.944;9.098;2022-10-31T06:35:54;102003.66;;;18.86;57.97
21109;BME280;10712;52.944;9.098;2022-10-31T06:38:21;101999.31;;;18.84;57.88
21109;BME280;10712;52.944;9.098;2022-10-31T06:40:46;102002.69;;;18.75;57.61
21109;BME280;10712;52.944;9.098;2022-10-31T06:43:20;102007.66;;;18.68;57.75
21109;BME280;10712;52.944;9.098;2022-10-31T06:45:47;102016.97;;;18.64;57.76
21109;BME280;10712;52.944;9.098;2022-10-31T06:48:21;102015.44;;;18.60;57.68
21109;BME280;10712;52.944;9.098;2022-10-31T06:51:06;102012.19;;;18.55;57.79
21109;BME280;10712;52.944;9.098;2022-10-31T06:53:32;102016.72;;;18.55;57.89
21109;BME280;10712;52.944;9.098;2022-10-31T06:55:58;102017.81;;;18.52;57.92
21109;BME280;10712;52.944;9.098;2022-10-31T06:58:24;102022.25;;;18.53;57.93
21109;BME280;10712;52.944;9.098;2022-10-31T07:00:53;102024.09;;;18.53;57.92
21109;BME280;10712;52.944;9.098;2022-10-31T07:03:19;102027.75;;;18.52;58.07
21109;BME280;10712;52.944;9.098;2022-10-31T07:05:47;102032.06;;;18.54;58.23
21109;BME280;10712;52.944;9.098;2022-10-31T07:08:14;102025.78;;;18.54;58.03
21109;BME280;10712;52.944;9.098;2022-10-31T07:10:42;102032.06;;;18.54;58.15
21109;BME280;10712;52.944;9.098;2022-10-31T07:13:12;102030.81;;;18.60;58.19
21109;BME280;10712;52.944;9.098;2022-10-31T07:15:41;102030.81;;;18.60;58.59
21109;BME280;10712;52.944;9.098;2022-10-31T07:18:10;102036.41;;;18.69;58.20
21109;BME280;10712;52.944;9.098;2022-10-31T07:20:36;102041.59;;;18.72;58.23
21109;BME280;10712;52.944;9.098;2022-10-31T07:23:02;102039.84;;;18.71;58.04
21109;BME280;10712;52.944;9.098;2022-10-31T07:25:30;102040.06;;;18.68;58.15
21109;BME280;10712;52.944;9.098;2022-10-31T07:28:06;102044.50;;;18.69;58.39
21109;BME280;10712;52.944;9.098;2022-10-31T07:30:33;102039.09;;;18.69;58.31
21109;BME280;10712;52.944;9.098;2022-10-31T07:32:59;102046.22;;;18.70;58.19
21109;BME280;10712;52.944;9.098;2022-10-31T07:35:43;102040.47;;;18.75;58.30
21109;BME280;10712;52.944;9.098;2022-10-31T07:38:14;102045.44;;;18.81;58.59
21109;BME280;10712;52.944;9.098;2022-10-31T07:40:42;102040.47;;;18.87;58.45
21109;BME280;10712;52.944;9.098;2022-10-31T07:43:10;102043.81;;;18.91;58.51
21109;BME280;10712;52.944;9.098;2022-10-31T07:45:56;102043.91;;;18.89;58.56
21109;BME280;10712;52.944;9.098;2022-10-31T07:48:41;102040.03;;;18.94;58.87
21109;BME280;10712;52.944;9.098;2022-10-31T07:51:25;102043.34;;;18.97;58.96
21109;BME280;10712;52.944;9.098;2022-10-31T07:54:17;102039.34;;;19.03;58.99
21109;BME280;10712;52.944;9.098;2022-10-31T07:56:43;102040.88;;;19.07;59.05
21109;BME280;10712;52.944;9.098;2022-10-31T07:59:09;102037.72;;;19.13;59.09
21109;BME280;10712;52.944;9.098;2022-10-31T08:01:35;102052.50;;;19.20;58.81
21109;BME280;10712;52.944;9.098;2022-10-31T08:04:19;102060.59;;;19.20;58.92
21109;BME280;10712;52.944;9.098;2022-10-31T08:07:03;102059.38;;;19.24;58.85
21109;BME280;10712;52.944;9.098;2022-10-31T08:09:33;102055.50;;;19.28;58.97
21109;BME280;10712;52.944;9.098;2022-10-31T08:12:04;102054.16;;;19.34;58.92
21109;BME280;10712;52.944;9.098;2022-10-31T08:14:32;102050.03;;;19.41;59.21
21109;BME280;10712;52.944;9.098;2022-10-31T08:16:58;102043.34;;;19.46;59.00
21109;BME280;10712;52.944;9.098;2022-10-31T08:19:30;102042.13;;;19.50;58.92
21109;BME280;10712;52.944;9.098;2022-10-31T08:21:56;102037.00;;;19.58;58.97
21109;BME280;10712;52.944;9.098;2022-10-31T08:24:22;102048.69;;;19.59;59.37
21109;BME280;10712;52.944;9.098;2022-10-31T08:26:48;102059.16;;;19.63;59.15
21109;BME280;10712;52.944;9.098;2022-10-31T08:29:13;102061.72;;;19.65;59.49
21109;BME280;10712;52.944;9.098;2022-10-31T08:31:42;102058.91;;;19.66;59.51
21109;BME280;10712;52.944;9.098;2022-10-31T08:34:26;102057.72;;;19.71;59.54
21109;BME280;10712;52.944;9.098;2022-10-31T08:37:11;102047.53;;;19.74;59.70
21109;BME280;10712;52.944;9.098;2022-10-31T08:39:45;102049.66;;;19.82;59.63
21109;BME280;10712;52.944;9.098;2022-10-31T08:42:11;102038.81;;;19.82;59.74
21109;BME280;10712;52.944;9.098;2022-10-31T08:44:38;102042.50;;;19.81;59.70
21109;BME280;10712;52.944;9.098;2022-10-31T08:47:03;102030.94;;;19.79;59.78
21109;BME280;10712;52.944;9.098;2022-10-31T08:49:32;102029.97;;;19.80;59.78
21109;BME280;10712;52.944;9.098;2022-10-31T08:51:58;102034.03;;;19.85;60.11
21109;BME280;10712;52.944;9.098;2022-10-31T08:54:28;102023.09;;;19.87;60.21
21109;BME280;10712;52.944;9.098;2022-10-31T08:56:55;102039.09;;;19.90;60.37
21109;BME280;10712;52.944;9.098;2022-10-31T08:59:38;102036.16;;;19.93;60.12
21109;BME280;10712;52.944;9.098;2022-10-31T09:02:22;102039.38;;;19.98;60.51
21109;BME280;10712;52.944;9.098;2022-10-31T09:04:50;102032.97;;;19.99;60.30
21109;BME280;10712;52.944;9.098;2022-10-31T09:07:16;102026.34;;;20.03;60.64
21109;BME280;10712;52.944;9.098;2022-10-31T09:09:42;102024.41;;;20.05;60.37
21109;BME280;10712;52.944;9.098;2022-10-31T09:12:09;102026.09;;;20.06;60.46
21109;BME280;10712;52.944;9.098;2022-10-31T09:14:53;102028.69;;;20.08;60.59
21109;BME280;10712;52.944;9.098;2022-10-31T09:17:27;102031.06;;;20.12;60.82
21109;BME280;10712;52.944;9.098;2022-10-31T09:20:14;102030.81;;;20.15;60.73
21109;BME280;10712;52.944;9.098;2022-10-31T09:22:41;102041.41;;;20.18;60.83
21109;BME280;10712;52.944;9.098;2022-10-31T09:25:08;102039.19;;;20.23;61.06
21109;BME280;10712;52.944;9.098;2022-10-31T09:27:34;102032.53;;;20.27;61.00
21109;BME280;10712;52.944;9.098;2022-10-31T09:30:01;102034.03;;;20.31;61.16
21109;BME280;10712;52.944;9.098;2022-10-31T09:32:27;102033.06;;;20.32;60.94
21109;BME280;10712;52.944;9.098;2022-10-31T09:34:53;102025.56;;;20.36;61.03
21109;BME280;10712;52.944;9.098;2022-10-31T09:37:19;102030.63;;;20.40;61.29
21109;BME280;10712;52.944;9.098;2022-10-31T09:39:45;102025.56;;;20.47;61.48
21109;BME280;10712;52.944;9.098;2022-10-31T09:45:40;102009.25;;;20.60;61.05
21109;BME280;10712;52.944;9.098;2022-10-31T09:48:37;102012.81;;;20.60;61.29
21109;BME280;10712;52.944;9.098;2022-10-31T09:51:21;102010.69;;;20.64;61.31
21109;BME280;10712;52.944;9.098;2022-10-31T09:54:14;102009.59;;;20.66;61.33
21109;BME280;10712;52.944;9.098;2022-10-31T09:56:43;102003.81;;;20.71;61.43
21109;BME280;10712;52.944;9.098;2022-10-31T09:59:37;102009.97;;;20.73;61.71
21109;BME280;10712;52.944;9.098;2022-10-31T10:02:25;102009.69;;;20.76;61.50
21109;BME280;10712;52.944;9.098;2022-10-31T10:05:03;102013.75;;;20.81;61.79
21109;BME280;10712;52.944;9.098;2022-10-31T10:10:47;102014.34;;;20.96;61.71
21109;BME280;10712;52.944;9.098;2022-10-31T10:16:41;102005.72;;;21.02;61.88
21109;BME280;10712;52.944;9.098;2022-10-31T10:22:47;102006.56;;;21.14;61.98
21109;BME280;10712;52.944;9.098;2022-10-31T10:25:34;102008.53;;;21.23;62.23
21109;BME280;10712;52.944;9.098;2022-10-31T10:28:23;102003.00;;;21.25;62.24
21109;BME280;10712;52.944;9.098;2022-10-31T10:31:03;102007.19;;;21.29;62.45
21109;BME280;10712;52.944;9.098;2022-10-31T10:34:06;101996.94;;;21.32;62.11
21109;BME280;10712;52.944;9.098;2022-10-31T10:36:52;102002.97;;;21.36;62.28
21109;BME280;10712;52.944;9.098;2022-10-31T10:39:31;102009.13;;;21.38;62.13
21109;BME280;10712;52.944;9.098;2022-10-31T10:42:01;102005.06;;;21.43;62.43
21109;BME280;10712;52.944;9.098;2022-10-31T10:44:51;102001.94;;;21.48;62.48
21109;BME280;10712;52.944;9.098;2022-10-31T10:50:44;102005.84;;;21.55;62.36
21109;BME280;10712;52.944;9.098;2022-10-31T10:53:53;101994.72;;;21.58;62.30
21109;BME280;10712;52.944;9.098;2022-10-31T10:59:18;102005.56;;;21.69;62.17
21109;BME280;10712;52.944;9.098;2022-10-31T11:01:48;102010.69;;;21.72;62.20
21109;BME280;10712;52.944;9.098;2022-10-31T11:04:35;102008.72;;;21.74;62.43
21109;BME280;10712;52.944;9.098;2022-10-31T11:07:08;102009.72;;;21.73;62.61
21109;BME280;10712;52.944;9.098;2022-10-31T11:09:35;102009.59;;;21.75;62.56
21109;BME280;10712;52.944;9.098;2022-10-31T11:12:17;102004.03;;;21.76;62.26
21109;BME280;10712;52.944;9.098;2022-10-31T11:14:53;102004.38;;;21.83;62.34
21109;BME280;10712;52.944;9.098;2022-10-31T11:17:39;102002.78;;;21.80;62.61
21109;BME280;10712;52.944;9.098;2022-10-31T11:20:34;102003.50;;;21.82;62.71
21109;BME280;10712;52.944;9.098;2022-10-31T11:23:19;102005.09;;;21.85;62.53
21109;BME280;10712;52.944;9.098;2022-10-31T11:25:59;101990.16;;;21.90;62.50
21109;BME280;10712;52.944;9.098;2022-10-31T11:28:28;101992.56;;;21.93;62.04
21109;BME280;10712;52.944;9.098;2022-10-31T11:31:12;101989.16;;;21.91;62.08
21109;BME280;10712;52.944;9.098;2022-10-31T11:33:49;101991.66;;;21.83;62.18
21109;BME280;10712;52.944;9.098;2022-10-31T11:36:24;101980.81;;;21.83;62.11
21109;BME280;10712;52.944;9.098;2022-10-31T11:38:52;101983.03;;;21.78;61.98
21109;BME280;10712;52.944;9.098;2022-10-31T11:41:35;101975.91;;;21.77;62.07
21109;BME280;10712;52.944;9.098;2022-10-31T11:44:24;101975.63;;;21.80;62.28
21109;BME280;10712;52.944;9.098;2022-10-31T11:47:02;101976.78;;;21.78;62.32
21109;BME280;10712;52.944;9.098;2022-10-31T11:49:41;101973.22;;;21.77;62.16
21109;BME280;10712;52.944;9.098;2022-10-31T11:52:30;101972.94;;;21.80;61.92
21109;BME280;10712;52.944;9.098;2022-10-31T11:55:32;101969.47;;;21.78;62.06
21109;BME280;10712;52.944;9.098;2022-10-31T11:57:58;101973.91;;;21.79;61.80
21109;BME280;10712;52.944;9.098;2022-10-31T12:00:33;101964.91;;;21.79;61.88
21109;BME280;10712;52.944;9.098;2022-10-31T12:04:23;101966.75;;;21.78;62.00
21109;BME280;10712;52.944;9.098;2022-10-31T12:06:41;101964.78;;;21.80;61.80
21109;BME280;10712;52.944;9.098;2022-10-31T12:09:25;101964.78;;;21.80;62.12
21109;BME280;10712;52.944;9.098;2022-10-31T12:12:27;101961.34;;;21.78;61.95
21109;BME280;10712;52.944;9.098;2022-10-31T12:15:36;101963.22;;;21.78;62.14
21109;BME280;10712;52.944;9.098;2022-10-31T12:24:11;101945.06;;;21.78;61.86
21109;BME280;10712;52.944;9.098;2022-10-31T12:29:55;101942.81;;;21.83;61.60
21109;BME280;10712;52.944;9.098;2022-10-31T12:35:40;101922.13;;;21.82;61.63
21109;BME280;10712;52.944;9.098;2022-10-31T12:51:29;101905.22;;;21.79;61.92
21109;BME280;10712;52.944;9.098;2022-10-31T12:57:21;101898.94;;;21.78;61.88
21109;BME280;10712;52.944;9.098;2022-10-31T12:59:57;101899.69;;;21.80;61.92
21109;BME280;10712;52.944;9.098;2022-10-31T13:02:39;101902.25;;;21.82;61.68
21109;BME280;10712;52.944;9.098;2022-10-31T13:05:32;101886.25;;;21.79;61.81
21109;BME280;10712;52.944;9.098;2022-10-31T13:08:10;101881.41;;;21.82;61.75
21109;BME280;10712;52.944;9.098;2022-10-31T13:11:14;101880.31;;;21.85;61.93
21109;BME280;10712;52.944;9.098;2022-10-31T13:13:47;101883.03;;;21.94;61.20
21109;BME280;10712;52.944;9.098;2022-10-31T13:16:21;101881.13;;;21.85;61.60
21109;BME280;10712;52.944;9.098;2022-10-31T13:19:25;101881.41;;;21.82;61.80
21109;BME280;10712;52.944;9.098;2022-10-31T13:22:17;101859.44;;;21.85;61.74
21109;BME280;10712;52.944;9.098;2022-10-31T13:25:10;101838.88;;;21.83;61.70
21109;BME280;10712;52.944;9.098;2022-10-31T13:28:00;101832.28;;;21.85;61.56
21109;BME280;10712;52.944;9.098;2022-10-31T13:30:32;101822.03;;;21.89;61.41
21109;BME280;10712;52.944;9.098;2022-10-31T13:33:04;101814.31;;;21.84;62.02
21109;BME280;10712;52.944;9.098;2022-10-31T13:38:30;101811.50;;;21.95;61.30
21109;BME280;10712;52.944;9.098;2022-10-31T13:41:40;101802.41;;;21.96;61.73
21109;BME280;10712;52.944;9.098;2022-10-31T13:44:21;101790.69;;;21.96;61.57
21109;BME280;10712;52.944;9.098;2022-10-31T13:46:53;101797.06;;;21.95;61.70
21109;BME280;10712;52.944;9.098;2022-10-31T13:54:50;101793.41;;;21.96;61.57
21109;BME280;10712;52.944;9.098;2022-10-31T13:57:38;101791.25;;;21.99;61.77
21109;BME280;10712;52.944;9.098;2022-10-31T14:00:25;101780.13;;;22.03;61.83
21109;BME280;10712;52.944;9.098;2022-10-31T14:02:57;101767.00;;;22.08;61.88
21109;BME280;10712;52.944;9.098;2022-10-31T14:05:31;101764.03;;;22.11;61.55
21109;BME280;10712;52.944;9.098;2022-10-31T14:08:01;101760.63;;;22.18;61.70
21109;BME280;10712;52.944;9.098;2022-10-31T14:10:29;101757.91;;;22.18;61.75
21109;BME280;10712;52.944;9.098;2022-10-31T14:13:08;101759.31;;;22.13;61.91
21109;BME280;10712;52.944;9.098;2022-10-31T14:15:43;101760.59;;;22.09;61.54
21109;BME280;10712;52.944;9.098;2022-10-31T14:18:34;101748.16;;;22.16;61.65
21109;BME280;10712;52.944;9.098;2022-10-31T14:21:00;101738.47;;;22.23;61.59
21109;BME280;10712;52.944;9.098;2022-10-31T14:29:19;101729.59;;;22.21;61.60
21109;BME280;10712;52.944;9.098;2022-10-31T14:31:57;101711.88;;;22.17;61.62
21109;BME280;10712;52.944;9.098;2022-10-31T14:34:33;101700.31;;;22.15;61.46
21109;BME280;10712;52.944;9.098;2022-10-31T14:43:31;101685.00;;;22.14;61.74
21109;BME280;10712;52.944;9.098;2022-10-31T14:51:44;101677.59;;;22.16;61.26
21109;BME280;10712;52.944;9.098;2022-10-31T14:54:25;101680.75;;;22.11;61.53
21109;BME280;10712;52.944;9.098;2022-10-31T14:56:58;101683.59;;;22.10;61.44
21109;BME280;10712;52.944;9.098;2022-10-31T14:59:31;101677.31;;;22.09;61.61
21109;BME280;10712;52.944;9.098;2022-10-31T15:02:12;101687.31;;;22.09;61.40
21109;BME280;10712;52.944;9.098;2022-10-31T15:04:41;101684.72;;;22.07;61.22
21109;BME280;10712;52.944;9.098;2022-10-31T15:07:23;101678.44;;;22.07;61.21
21109;BME280;10712;52.944;9.098;2022-10-31T15:09:58;101680.47;;;22.05;61.42
21109;BME280;10712;52.944;9.098;2022-10-31T15:12:31;101678.72;;;22.04;61.10
21109;BME280;10712;52.944;9.098;2022-10-31T15:15:11;101676.28;;;22.00;61.40